sensor_id;sensor_type;location;lat;lon;timestamp;pressure;altitude;pressure_sealevel;temperature;humidity
13661;BME280;6903;49.480;11.102;2023-06-10T00:02:10;97619.09;;;14.94;100.00
13661;BME280;6903;49.480;11.102;2023-06-10T00:04:35;97623.56;;;14.94;100.00
13661;BME280;6903;49.480;11.102;2023-06-10T00:07:03;97628.41;;;14.98;100.00
13661;BME280;6903;49.480;11.102;2023-06-10T00:09:29;97619.63;;;14.98;100.00
13661;BME280;6903;49.480;11.102;2023-06-10T00:11:54;97627.59;;;14.98;100.00
13661;BME280;6903;49.480;11.102;2023-06-10T00:14:19;97630.41;;;14.96;100.00
13661;BME280;6903;49.480;11.102;2023-06-10T00:16:45;97621.91;;;14.93;100.00
13661;BME280;6903;49.480;11.102;2023-06-10T00:19:11;97620.84;;;14.86;100.00
13661;BME280;6903;49.480;11.102;2023-06-10T00:21:39;97621.81;;;14.77;100.00
13661;BME280;6903;49.480;11.102;2023-06-10T00:24:10;97615.97;;;14.73;100.00
13661;BME280;6903;49.480;11.102;2023-06-10T00:26:37;97621.91;;;14.67;100.00
13661;BME280;6903;49.480;11.102;2023-06-10T00:29:03;97626.16;;;14.60;100.00
13661;BME280;6903;49.480;11.102;2023-06-10T00:31:28;97628.81;;;14.60;100.00
13661;BME280;6903;49.480;11.102;2023-06-10T00:33:53;97627.75;;;14.53;100.00
13661;BME280;6903;49.480;11.102;2023-06-10T00:36:19;97630.19;;;14.47;100.00
13661;BME280;6903;49.480;11.102;2023-06-10T00:38:44;97628.00;;;14.42;100.00
13661;BME280;6903;49.480;11.102;2023-06-10T00:41:10;97627.78;;;14.36;100.00
13661;BME280;6903;49.480;11.102;2023-06-10T00:43:35;97622.63;;;14.34;100.00
13661;BME280;6903;49.480;11.102;2023-06-10T00:46:00;97625.97;;;14.36;100.00
13661;BME280;6903;49.480;11.102;2023-06-10T00:48:27;97624.09;;;14.29;100.00
13661;BME280;6903;49.480;11.102;2023-06-10T00:50:52;97627.00;;;14.26;100.00
13661;BME280;6903;49.480;11.102;2023-06-10T00:53:18;97621.47;;;14.19;100.00
13661;BME280;6903;49.480;11.102;2023-06-10T00:55:43;97626.91;;;14.17;100.00
13661;BME280;6903;49.480;11.102;2023-06-10T00:58:09;97630.88;;;14.13;100.00
13661;BME280;6903;49.480;11.102;2023-06-10T01:00:35;97627.28;;;14.05;100.00
13661;BME280;6903;49.480;11.102;2023-06-10T01:03:00;97627.75;;;14.00;100.00
13661;BME280;6903;49.480;11.102;2023-06-10T01:05:26;97623.75;;;13.96;100.00
13661;BME280;6903;49.480;11.102;2023-06-10T01:08:09;97629.31;;;13.93;100.00
13661;BME280;6903;49.480;11.102;2023-06-10T01:10:41;97633.66;;;13.94;100.00
13661;BME280;6903;49.480;11.102;2023-06-10T01:13:09;97620.03;;;13.89;100.00
13661;BME280;6903;49.480;11.102;2023-06-10T01:15:37;97632.59;;;13.87;100.00
13661;BME280;6903;49.480;11.102;2023-06-10T01:18:07;97636.38;;;13.85;100.00
13661;BME280;6903;49.480;11.102;2023-06-10T01:20:41;97642.78;;;13.82;100.00
13661;BME280;6903;49.480;11.102;2023-06-10T01:23:07;97635.84;;;13.81;100.00
13661;BME280;6903;49.480;11.102;2023-06-10T01:25:33;97642.00;;;13.82;100.00
13661;BME280;6903;49.480;11.102;2023-06-10T01:28:19;97626.66;;;13.76;100.00
13661;BME280;6903;49.480;11.102;2023-06-10T01:30:48;97633.94;;;13.74;100.00
13661;BME280;6903;49.480;11.102;2023-06-10T01:33:19;97636.81;;;13.80;100.00
13661;BME280;6903;49.480;11.102;2023-06-10T01:35:50;97633.66;;;13.77;100.00
13661;BME280;6903;49.480;11.102;2023-06-10T01:38:16;97642.56;;;13.76;100.00
13661;BME280;6903;49.480;11.102;2023-06-10T01:40:45;97639.25;;;13.74;100.00
13661;BME280;6903;49.480;11.102;2023-06-10T01:43:11;97640.91;;;13.75;100.00
13661;BME280;6903;49.480;11.102;2023-06-10T01:45:36;97638.56;;;13.72;100.00
13661;BME280;6903;49.480;11.102;2023-06-10T01:48:02;97647.47;;;13.71;100.00
13661;BME280;6903;49.480;11.102;2023-06-10T01:50:27;97649.84;;;13.74;100.00
13661;BME280;6903;49.480;11.102;2023-06-10T01:52:52;97644.81;;;13.71;100.00
13661;BME280;6903;49.480;11.102;2023-06-10T01:55:18;97639.16;;;13.66;100.00
13661;BME280;6903;49.480;11.102;2023-06-10T01:57:43;97647.38;;;13.63;100.00
13661;BME280;6903;49.480;11.102;2023-06-10T02:00:09;97655.78;;;13.58;100.00
13661;BME280;6903;49.480;11.102;2023-06-10T02:02:35;97650.31;;;13.60;100.00
13661;BME280;6903;49.480;11.102;2023-06-10T02:05:00;97649.66;;;13.58;100.00
13661;BME280;6903;49.480;11.102;2023-06-10T02:07:26;97655.22;;;13.55;100.00
13661;BME280;6903;49.480;11.102;2023-06-10T02:09:51;97644.13;;;13.51;100.00
13661;BME280;6903;49.480;11.102;2023-06-10T02:12:16;97645.53;;;13.46;100.00
13661;BME280;6903;49.480;11.102;2023-06-10T02:14:42;97641.50;;;13.42;100.00
13661;BME280;6903;49.480;11.102;2023-06-10T02:17:07;97649.06;;;13.37;100.00
13661;BME280;6903;49.480;11.102;2023-06-10T02:19:32;97644.19;;;13.32;100.00
13661;BME280;6903;49.480;11.102;2023-06-10T02:22:01;97644.88;;;13.34;100.00
13661;BME280;6903;49.480;11.102;2023-06-10T02:24:27;97644.88;;;13.34;100.00
13661;BME280;6903;49.480;11.102;2023-06-10T02:26:52;97645.56;;;13.36;100.00
13661;BME280;6903;49.480;11.102;2023-06-10T02:29:18;97640.81;;;13.40;100.00
13661;BME280;6903;49.480;11.102;2023-06-10T02:31:43;97639.28;;;13.37;100.00
13661;BME280;6903;49.480;11.102;2023-06-10T02:34:08;97635.44;;;13.32;100.00
13661;BME280;6903;49.480;11.102;2023-06-10T02:36:34;97644.06;;;13.24;100.00
13661;BME280;6903;49.480;11.102;2023-06-10T02:39:01;97643.00;;;13.17;100.00
13661;BME280;6903;49.480;11.102;2023-06-10T02:41:26;97655.00;;;13.12;100.00
13661;BME280;6903;49.480;11.102;2023-06-10T02:43:51;97647.78;;;13.04;100.00
13661;BME280;6903;49.480;11.102;2023-06-10T02:46:17;97651.41;;;12.94;100.00
13661;BME280;6903;49.480;11.102;2023-06-10T02:48:43;97654.47;;;12.89;100.00
13661;BME280;6903;49.480;11.102;2023-06-10T02:51:12;97653.13;;;12.85;100.00
13661;BME280;6903;49.480;11.102;2023-06-10T02:53:37;97653.53;;;12.80;100.00
13661;BME280;6903;49.480;11.102;2023-06-10T02:56:03;97657.16;;;12.79;100.00
13661;BME280;6903;49.480;11.102;2023-06-10T02:58:28;97659.25;;;12.76;100.00
13661;BME280;6903;49.480;11.102;2023-06-10T03:00:53;97660.38;;;12.73;100.00
13661;BME280;6903;49.480;11.102;2023-06-10T03:03:19;97657.03;;;12.71;100.00
13661;BME280;6903;49.480;11.102;2023-06-10T03:05:45;97669.28;;;12.72;100.00
13661;BME280;6903;49.480;11.102;2023-06-10T03:08:10;97659.66;;;12.81;100.00
13661;BME280;6903;49.480;11.102;2023-06-10T03:10:35;97667.84;;;12.88;100.00
13661;BME280;6903;49.480;11.102;2023-06-10T03:13:01;97665.47;;;12.94;100.00
13661;BME280;6903;49.480;11.102;2023-06-10T03:15:26;97664.09;;;13.00;100.00
13661;BME280;6903;49.480;11.102;2023-06-10T03:17:54;97669.53;;;13.08;100.00
13661;BME280;6903;49.480;11.102;2023-06-10T03:20:19;97668.25;;;13.12;100.00
13661;BME280;6903;49.480;11.102;2023-06-10T03:22:46;97666.84;;;13.17;100.00
13661;BME280;6903;49.480;11.102;2023-06-10T03:25:12;97664.19;;;13.17;100.00
13661;BME280;6903;49.480;11.102;2023-06-10T03:27:39;97662.75;;;13.23;100.00
13661;BME280;6903;49.480;11.102;2023-06-10T03:30:05;97671.25;;;13.26;100.00
13661;BME280;6903;49.480;11.102;2023-06-10T03:32:31;97669.84;;;13.32;100.00
13661;BME280;6903;49.480;11.102;2023-06-10T03:34:56;97668.88;;;13.33;100.00
13661;BME280;6903;49.480;11.102;2023-06-10T03:37:21;97668.28;;;13.39;100.00
13661;BME280;6903;49.480;11.102;2023-06-10T03:39:47;97664.66;;;13.40;100.00
13661;BME280;6903;49.480;11.102;2023-06-10T03:42:12;97659.75;;;13.45;100.00
13661;BME280;6903;49.480;11.102;2023-06-10T03:44:37;97668.72;;;13.61;100.00
13661;BME280;6903;49.480;11.102;2023-06-10T03:47:03;97667.88;;;13.88;100.00
13661;BME280;6903;49.480;11.102;2023-06-10T03:49:28;97668.06;;;14.21;100.00
13661;BME280;6903;49.480;11.102;2023-06-10T03:51:54;97663.47;;;14.59;100.00
13661;BME280;6903;49.480;11.102;2023-06-10T03:54:20;97664.53;;;14.91;100.00
13661;BME280;6903;49.480;11.102;2023-06-10T03:56:45;97662.84;;;15.16;100.00
13661;BME280;6903;49.480;11.102;2023-06-10T03:59:10;97662.19;;;15.39;100.00
13661;BME280;6903;49.480;11.102;2023-06-10T04:01:36;97664.97;;;15.64;100.00
13661;BME280;6903;49.480;11.102;2023-06-10T04:04:02;97661.38;;;15.89;100.00
13661;BME280;6903;49.480;11.102;2023-06-10T04:06:28;97667.09;;;16.10;100.00
13661;BME280;6903;49.480;11.102;2023-06-10T04:08:54;97662.50;;;16.36;100.00
13661;BME280;6903;49.480;11.102;2023-06-10T04:11:21;97657.72;;;16.63;100.00
13661;BME280;6903;49.480;11.102;2023-06-10T04:13:46;97659.53;;;16.87;100.00
13661;BME280;6903;49.480;11.102;2023-06-10T04:16:11;97653.34;;;17.11;100.00
13661;BME280;6903;49.480;11.102;2023-06-10T04:18:37;97662.44;;;17.32;100.00
13661;BME280;6903;49.480;11.102;2023-06-10T04:21:02;97654.44;;;17.48;100.00
13661;BME280;6903;49.480;11.102;2023-06-10T04:23:27;97660.50;;;17.73;100.00
13661;BME280;6903;49.480;11.102;2023-06-10T04:25:53;97659.91;;;17.93;100.00
13661;BME280;6903;49.480;11.102;2023-06-10T04:28:18;97653.88;;;18.22;100.00
13661;BME280;6903;49.480;11.102;2023-06-10T04:30:43;97656.59;;;18.45;100.00
13661;BME280;6903;49.480;11.102;2023-06-10T04:33:10;97651.06;;;18.69;100.00
13661;BME280;6903;49.480;11.102;2023-06-10T04:35:35;97653.34;;;18.94;100.00
13661;BME280;6903;49.480;11.102;2023-06-10T04:38:00;97647.25;;;19.23;100.00
13661;BME280;6903;49.480;11.102;2023-06-10T04:40:27;97645.59;;;19.51;100.00
13661;BME280;6903;49.480;11.102;2023-06-10T04:42:53;97649.28;;;19.79;100.00
13661;BME280;6903;49.480;11.102;2023-06-10T04:45:18;97653.28;;;20.04;100.00
13661;BME280;6903;49.480;11.102;2023-06-10T04:47:43;97652.97;;;20.28;100.00
13661;BME280;6903;49.480;11.102;2023-06-10T04:50:09;97649.66;;;20.47;100.00
13661;BME280;6903;49.480;11.102;2023-06-10T04:52:34;97647.63;;;20.70;100.00
13661;BME280;6903;49.480;11.102;2023-06-10T04:55:00;97655.75;;;20.98;100.00
13661;BME280;6903;49.480;11.102;2023-06-10T04:57:25;97648.69;;;21.18;100.00
13661;BME280;6903;49.480;11.102;2023-06-10T04:59:51;97647.41;;;21.42;100.00
13661;BME280;6903;49.480;11.102;2023-06-10T05:02:17;97646.53;;;21.69;100.00
13661;BME280;6903;49.480;11.102;2023-06-10T05:04:42;97649.53;;;21.87;100.00
13661;BME280;6903;49.480;11.102;2023-06-10T05:07:07;97659.13;;;22.09;100.00
13661;BME280;6903;49.480;11.102;2023-06-10T05:09:33;97656.13;;;22.38;100.00
13661;BME280;6903;49.480;11.102;2023-06-10T05:11:58;97650.00;;;22.64;100.00
13661;BME280;6903;49.480;11.102;2023-06-10T05:14:23;97648.78;;;22.92;100.00
13661;BME280;6903;49.480;11.102;2023-06-10T05:16:49;97640.09;;;23.16;100.00
13661;BME280;6903;49.480;11.102;2023-06-10T05:19:14;97653.16;;;23.32;100.00
13661;BME280;6903;49.480;11.102;2023-06-10T05:21:41;97656.00;;;23.57;100.00
13661;BME280;6903;49.480;11.102;2023-06-10T05:24:07;97658.38;;;23.91;100.00
13661;BME280;6903;49.480;11.102;2023-06-10T05:26:32;97653.59;;;24.06;100.00
13661;BME280;6903;49.480;11.102;2023-06-10T05:28:58;97653.72;;;24.24;100.00
13661;BME280;6903;49.480;11.102;2023-06-10T05:31:23;97658.59;;;24.47;100.00
13661;BME280;6903;49.480;11.102;2023-06-10T05:33:49;97659.03;;;24.75;99.73
13661;BME280;6903;49.480;11.102;2023-06-10T05:36:14;97671.28;;;24.77;98.82
13661;BME280;6903;49.480;11.102;2023-06-10T05:38:39;97667.28;;;24.86;96.75
13661;BME280;6903;49.480;11.102;2023-06-10T05:41:05;97666.84;;;25.14;93.93
13661;BME280;6903;49.480;11.102;2023-06-10T05:43:30;97675.56;;;25.16;92.55
13661;BME280;6903;49.480;11.102;2023-06-10T05:45:55;97673.88;;;25.15;90.90
13661;BME280;6903;49.480;11.102;2023-06-10T05:48:21;97667.69;;;25.39;90.18
13661;BME280;6903;49.480;11.102;2023-06-10T05:50:46;97668.25;;;25.48;88.82
13661;BME280;6903;49.480;11.102;2023-06-10T05:53:14;97668.03;;;25.67;86.67
13661;BME280;6903;49.480;11.102;2023-06-10T05:55:44;97671.59;;;26.22;84.33
13661;BME280;6903;49.480;11.102;2023-06-10T05:58:09;97665.16;;;26.71;81.26
13661;BME280;6903;49.480;11.102;2023-06-10T06:00:35;97664.88;;;27.13;78.07
13661;BME280;6903;49.480;11.102;2023-06-10T06:03:00;97664.25;;;27.64;75.61
13661;BME280;6903;49.480;11.102;2023-06-10T06:05:25;97661.97;;;28.07;73.16
13661;BME280;6903;49.480;11.102;2023-06-10T06:07:51;97660.97;;;28.25;71.46
13661;BME280;6903;49.480;11.102;2023-06-10T06:10:17;97661.84;;;28.42;69.92
13661;BME280;6903;49.480;11.102;2023-06-10T06:12:43;97668.22;;;28.75;69.56
13661;BME280;6903;49.480;11.102;2023-06-10T06:15:09;97661.06;;;29.14;67.50
13661;BME280;6903;49.480;11.102;2023-06-10T06:17:35;97658.84;;;29.28;66.50
13661;BME280;6903;49.480;11.102;2023-06-10T06:20:01;97670.88;;;29.65;64.89
13661;BME280;6903;49.480;11.102;2023-06-10T06:22:26;97667.53;;;29.96;62.25
13661;BME280;6903;49.480;11.102;2023-06-10T06:24:51;97667.53;;;30.17;60.07
13661;BME280;6903;49.480;11.102;2023-06-10T06:27:17;97664.72;;;30.29;58.47
13661;BME280;6903;49.480;11.102;2023-06-10T06:29:42;97671.00;;;30.56;56.26
13661;BME280;6903;49.480;11.102;2023-06-10T06:32:08;97667.63;;;30.92;54.67
13661;BME280;6903;49.480;11.102;2023-06-10T06:34:33;97664.38;;;31.27;53.12
13661;BME280;6903;49.480;11.102;2023-06-10T06:36:58;97668.06;;;31.37;50.56
13661;BME280;6903;49.480;11.102;2023-06-10T06:39:24;97660.81;;;31.21;49.76
13661;BME280;6903;49.480;11.102;2023-06-10T06:41:49;97668.69;;;30.43;50.38
13661;BME280;6903;49.480;11.102;2023-06-10T06:44:14;97660.94;;;29.92;50.42
13661;BME280;6903;49.480;11.102;2023-06-10T06:46:40;97655.94;;;29.67;52.02
13661;BME280;6903;49.480;11.102;2023-06-10T06:49:05;97659.97;;;29.81;52.43
13661;BME280;6903;49.480;11.102;2023-06-10T06:51:31;97657.63;;;29.90;51.60
13661;BME280;6903;49.480;11.102;2023-06-10T06:53:56;97661.94;;;29.86;51.21
13661;BME280;6903;49.480;11.102;2023-06-10T06:56:24;97666.75;;;29.29;51.29
13661;BME280;6903;49.480;11.102;2023-06-10T06:58:49;97666.13;;;28.38;52.43
13661;BME280;6903;49.480;11.102;2023-06-10T07:01:14;97659.88;;;27.51;56.00
13661;BME280;6903;49.480;11.102;2023-06-10T07:03:40;97664.28;;;27.00;58.84
13661;BME280;6903;49.480;11.102;2023-06-10T07:06:05;97673.38;;;26.76;60.22
13661;BME280;6903;49.480;11.102;2023-06-10T07:08:31;97674.53;;;26.50;62.19
13661;BME280;6903;49.480;11.102;2023-06-10T07:10:56;97671.91;;;26.43;62.90
13661;BME280;6903;49.480;11.102;2023-06-10T07:13:21;97672.91;;;26.49;62.63
13661;BME280;6903;49.480;11.102;2023-06-10T07:15:47;97672.53;;;26.45;63.21
13661;BME280;6903;49.480;11.102;2023-06-10T07:18:12;97667.69;;;26.18;63.98
13661;BME280;6903;49.480;11.102;2023-06-10T07:20:37;97674.34;;;25.97;65.64
13661;BME280;6903;49.480;11.102;2023-06-10T07:23:03;97671.19;;;25.82;65.94
13661;BME280;6903;49.480;11.102;2023-06-10T07:25:28;97666.44;;;25.60;68.21
13661;BME280;6903;49.480;11.102;2023-06-10T07:27:53;97665.34;;;25.85;67.41
13661;BME280;6903;49.480;11.102;2023-06-10T07:30:19;97669.09;;;25.84;67.56
13661;BME280;6903;49.480;11.102;2023-06-10T07:32:44;97660.16;;;25.84;68.05
13661;BME280;6903;49.480;11.102;2023-06-10T07:35:10;97670.22;;;25.77;68.65
13661;BME280;6903;49.480;11.102;2023-06-10T07:37:36;97668.84;;;25.50;69.49
13661;BME280;6903;49.480;11.102;2023-06-10T07:40:02;97668.50;;;25.64;68.59
13661;BME280;6903;49.480;11.102;2023-06-10T07:42:27;97672.25;;;25.99;67.77
13661;BME280;6903;49.480;11.102;2023-06-10T07:44:53;97672.97;;;26.42;66.06
13661;BME280;6903;49.480;11.102;2023-06-10T07:47:18;97661.41;;;26.35;65.04
13661;BME280;6903;49.480;11.102;2023-06-10T07:49:43;97661.63;;;26.82;63.46
13661;BME280;6903;49.480;11.102;2023-06-10T07:52:09;97667.94;;;27.17;61.41
13661;BME280;6903;49.480;11.102;2023-06-10T07:54:34;97667.69;;;27.07;60.98
13661;BME280;6903;49.480;11.102;2023-06-10T07:56:59;97657.88;;;26.83;61.52
13661;BME280;6903;49.480;11.102;2023-06-10T07:59:24;97664.53;;;27.21;60.30
13661;BME280;6903;49.480;11.102;2023-06-10T08:01:51;97664.28;;;27.00;59.81
13661;BME280;6903;49.480;11.102;2023-06-10T08:04:16;97664.47;;;27.28;59.56
13661;BME280;6903;49.480;11.102;2023-06-10T08:06:42;97663.47;;;27.22;59.18
13661;BME280;6903;49.480;11.102;2023-06-10T08:09:07;97660.81;;;27.57;58.52
13661;BME280;6903;49.480;11.102;2023-06-10T08:11:32;97661.88;;;27.91;57.65
13661;BME280;6903;49.480;11.102;2023-06-10T08:13:58;97658.16;;;28.20;56.73
13661;BME280;6903;49.480;11.102;2023-06-10T08:16:23;97661.63;;;27.92;56.19
13661;BME280;6903;49.480;11.102;2023-06-10T08:18:48;97656.31;;;27.86;56.09
13661;BME280;6903;49.480;11.102;2023-06-10T08:21:15;97663.16;;;28.39;55.06
13661;BME280;6903;49.480;11.102;2023-06-10T08:23:40;97650.94;;;29.09;53.20
13661;BME280;6903;49.480;11.102;2023-06-10T08:26:06;97653.41;;;29.11;53.10
13661;BME280;6903;49.480;11.102;2023-06-10T08:28:31;97656.00;;;28.89;52.74
13661;BME280;6903;49.480;11.102;2023-06-10T08:30:56;97659.06;;;28.93;53.10
13661;BME280;6903;49.480;11.102;2023-06-10T08:33:22;97656.72;;;28.68;53.06
13661;BME280;6903;49.480;11.102;2023-06-10T08:35:47;97647.50;;;28.69;53.50
13661;BME280;6903;49.480;11.102;2023-06-10T08:38:13;97651.78;;;28.82;52.46
13661;BME280;6903;49.480;11.102;2023-06-10T08:40:38;97646.63;;;28.13;53.76
13661;BME280;6903;49.480;11.102;2023-06-10T08:43:08;97652.09;;;28.01;53.66
13661;BME280;6903;49.480;11.102;2023-06-10T08:45:36;97643.38;;;28.27;52.88
13661;BME280;6903;49.480;11.102;2023-06-10T08:48:03;97648.03;;;28.43;52.35
13661;BME280;6903;49.480;11.102;2023-06-10T08:50:34;97654.19;;;28.39;51.50
13661;BME280;6903;49.480;11.102;2023-06-10T08:53:00;97649.00;;;28.37;52.06
13661;BME280;6903;49.480;11.102;2023-06-10T08:55:30;97653.59;;;28.48;51.49
13661;BME280;6903;49.480;11.102;2023-06-10T08:57:59;97645.25;;;28.66;51.67
13661;BME280;6903;49.480;11.102;2023-06-10T09:00:24;97654.69;;;28.92;50.81
13661;BME280;6903;49.480;11.102;2023-06-10T09:02:50;97645.78;;;28.24;51.70
13661;BME280;6903;49.480;11.102;2023-06-10T09:05:16;97647.44;;;28.13;51.93
13661;BME280;6903;49.480;11.102;2023-06-10T09:07:41;97642.34;;;28.28;52.22
13661;BME280;6903;49.480;11.102;2023-06-10T09:10:07;97653.06;;;28.63;52.27
13661;BME280;6903;49.480;11.102;2023-06-10T09:12:33;97652.50;;;28.61;51.22
13661;BME280;6903;49.480;11.102;2023-06-10T09:15:00;97648.75;;;28.50;51.34
13661;BME280;6903;49.480;11.102;2023-06-10T09:17:26;97633.31;;;28.95;50.38
13661;BME280;6903;49.480;11.102;2023-06-10T09:19:52;97639.28;;;28.53;51.50
13661;BME280;6903;49.480;11.102;2023-06-10T09:22:19;97666.56;;;28.46;51.59
13661;BME280;6903;49.480;11.102;2023-06-10T09:24:46;97646.66;;;28.41;51.33
13661;BME280;6903;49.480;11.102;2023-06-10T09:27:11;97645.94;;;28.06;53.08
13661;BME280;6903;49.480;11.102;2023-06-10T09:29:53;97650.34;;;28.35;51.90
13661;BME280;6903;49.480;11.102;2023-06-10T09:32:20;97652.38;;;28.16;53.01
13661;BME280;6903;49.480;11.102;2023-06-10T09:34:46;97643.00;;;28.35;51.58
13661;BME280;6903;49.480;11.102;2023-06-10T09:37:12;97642.00;;;28.81;50.94
13661;BME280;6903;49.480;11.102;2023-06-10T09:39:40;97646.44;;;28.87;50.42
13661;BME280;6903;49.480;11.102;2023-06-10T09:42:16;97652.13;;;28.85;49.88
13661;BME280;6903;49.480;11.102;2023-06-10T09:44:42;97653.22;;;28.45;50.82
13661;BME280;6903;49.480;11.102;2023-06-10T09:47:07;97656.13;;;28.66;51.44
13661;BME280;6903;49.480;11.102;2023-06-10T09:49:32;97647.91;;;29.23;50.86
13661;BME280;6903;49.480;11.102;2023-06-10T09:51:58;97654.97;;;29.40;49.78
13661;BME280;6903;49.480;11.102;2023-06-10T09:54:23;97652.34;;;29.12;48.94
13661;BME280;6903;49.480;11.102;2023-06-10T09:56:51;97655.88;;;28.68;50.16
13661;BME280;6903;49.480;11.102;2023-06-10T09:59:37;97654.88;;;28.46;50.38
13661;BME280;6903;49.480;11.102;2023-06-10T10:02:03;97644.69;;;28.25;50.36
13661;BME280;6903;49.480;11.102;2023-06-10T10:04:30;97641.31;;;28.57;50.25
13661;BME280;6903;49.480;11.102;2023-06-10T10:06:56;97627.34;;;29.27;50.97
13661;BME280;6903;49.480;11.102;2023-06-10T10:09:21;97646.09;;;29.12;49.88
13661;BME280;6903;49.480;11.102;2023-06-10T10:11:47;97647.00;;;28.72;49.83
13661;BME280;6903;49.480;11.102;2023-06-10T10:14:13;97628.84;;;28.89;49.49
13661;BME280;6903;49.480;11.102;2023-06-10T10:16:41;97638.78;;;29.12;48.90
13661;BME280;6903;49.480;11.102;2023-06-10T10:19:11;97647.22;;;29.49;48.29
13661;BME280;6903;49.480;11.102;2023-06-10T10:21:43;97635.16;;;29.40;48.23
13661;BME280;6903;49.480;11.102;2023-06-10T10:24:16;97631.34;;;29.24;46.41
13661;BME280;6903;49.480;11.102;2023-06-10T10:26:43;97653.75;;;29.15;47.87
13661;BME280;6903;49.480;11.102;2023-06-10T10:29:24;97633.84;;;29.09;47.03
13661;BME280;6903;49.480;11.102;2023-06-10T10:31:54;97626.16;;;28.89;47.08
13661;BME280;6903;49.480;11.102;2023-06-10T10:34:25;97632.84;;;29.15;46.62
13661;BME280;6903;49.480;11.102;2023-06-10T10:36:55;97630.22;;;28.59;46.76
13661;BME280;6903;49.480;11.102;2023-06-10T10:39:21;97628.81;;;28.17;49.68
13661;BME280;6903;49.480;11.102;2023-06-10T10:41:46;97630.59;;;28.51;49.85
13661;BME280;6903;49.480;11.102;2023-06-10T10:44:13;97619.31;;;29.03;48.79
13661;BME280;6903;49.480;11.102;2023-06-10T10:46:45;97632.63;;;28.88;48.81
13661;BME280;6903;49.480;11.102;2023-06-10T10:49:15;97640.72;;;28.44;50.22
13661;BME280;6903;49.480;11.102;2023-06-10T10:52:00;97637.50;;;28.58;50.45
13661;BME280;6903;49.480;11.102;2023-06-10T10:54:30;97635.44;;;28.37;50.93
13661;BME280;6903;49.480;11.102;2023-06-10T10:57:09;97632.03;;;28.02;53.05
13661;BME280;6903;49.480;11.102;2023-06-10T10:59:55;97635.22;;;28.11;53.38
13661;BME280;6903;49.480;11.102;2023-06-10T11:02:40;97639.66;;;28.17;52.62
13661;BME280;6903;49.480;11.102;2023-06-10T11:05:08;97625.69;;;28.36;50.94
13661;BME280;6903;49.480;11.102;2023-06-10T11:07:35;97643.38;;;28.67;49.72
13661;BME280;6903;49.480;11.102;2023-06-10T11:10:08;97634.97;;;28.40;48.95
13661;BME280;6903;49.480;11.102;2023-06-10T11:12:53;97636.81;;;28.23;48.39
13661;BME280;6903;49.480;11.102;2023-06-10T11:15:24;97625.88;;;28.07;50.58
13661;BME280;6903;49.480;11.102;2023-06-10T11:20:44;97629.56;;;28.01;53.32
13661;BME280;6903;49.480;11.102;2023-06-10T11:23:10;97641.84;;;28.31;53.24
13661;BME280;6903;49.480;11.102;2023-06-10T11:25:39;97639.41;;;28.18;52.93
13661;BME280;6903;49.480;11.102;2023-06-10T11:28:18;97638.34;;;28.19;52.71
13661;BME280;6903;49.480;11.102;2023-06-10T11:30:44;97629.34;;;27.91;53.99
13661;BME280;6903;49.480;11.102;2023-06-10T11:33:14;97650.91;;;27.74;54.43
13661;BME280;6903;49.480;11.102;2023-06-10T11:35:40;97626.06;;;27.42;55.49
13661;BME280;6903;49.480;11.102;2023-06-10T11:38:05;97626.06;;;27.65;55.71
13661;BME280;6903;49.480;11.102;2023-06-10T11:40:31;97626.09;;;28.17;54.57
13661;BME280;6903;49.480;11.102;2023-06-10T11:42:57;97614.19;;;28.74;53.08
13661;BME280;6903;49.480;11.102;2023-06-10T11:45:23;97627.09;;;28.83;53.02
13661;BME280;6903;49.480;11.102;2023-06-10T11:47:58;97624.22;;;28.90;51.33
13661;BME280;6903;49.480;11.102;2023-06-10T11:50:31;97620.97;;;28.88;51.54
13661;BME280;6903;49.480;11.102;2023-06-10T11:52:57;97616.78;;;28.52;52.53
13661;BME280;6903;49.480;11.102;2023-06-10T11:56:09;97613.94;;;28.75;51.69
13661;BME280;6903;49.480;11.102;2023-06-10T11:58:16;97608.66;;;29.30;51.34
13661;BME280;6903;49.480;11.102;2023-06-10T12:00:53;97613.88;;;29.70;49.86
13661;BME280;6903;49.480;11.102;2023-06-10T12:03:19;97620.41;;;29.19;50.19
13661;BME280;6903;49.480;11.102;2023-06-10T12:08:23;97618.88;;;28.62;50.98
13661;BME280;6903;49.480;11.102;2023-06-10T12:10:49;97619.41;;;28.36;50.25
13661;BME280;6903;49.480;11.102;2023-06-10T12:13:14;97617.94;;;28.28;49.37
13661;BME280;6903;49.480;11.102;2023-06-10T12:15:40;97624.66;;;28.26;50.01
13661;BME280;6903;49.480;11.102;2023-06-10T12:18:05;97612.56;;;28.05;50.27
13661;BME280;6903;49.480;11.102;2023-06-10T12:20:32;97607.59;;;28.42;49.64
13661;BME280;6903;49.480;11.102;2023-06-10T12:23:08;97577.19;;;29.18;48.65
13661;BME280;6903;49.480;11.102;2023-06-10T12:25:34;97601.88;;;29.33;47.74
13661;BME280;6903;49.480;11.102;2023-06-10T12:27:59;97600.81;;;29.34;47.81
13661;BME280;6903;49.480;11.102;2023-06-10T12:30:26;97599.44;;;29.69;47.03
13661;BME280;6903;49.480;11.102;2023-06-10T12:32:52;97599.94;;;30.26;45.97
13661;BME280;6903;49.480;11.102;2023-06-10T12:35:20;97599.94;;;30.26;45.77
13661;BME280;6903;49.480;11.102;2023-06-10T12:38:03;97599.09;;;30.04;45.94
13661;BME280;6903;49.480;11.102;2023-06-10T12:40:38;97597.25;;;30.09;46.38
13661;BME280;6903;49.480;11.102;2023-06-10T12:43:05;97596.22;;;29.72;46.58
13661;BME280;6903;49.480;11.102;2023-06-10T12:48:24;97596.41;;;28.66;48.67
13661;BME280;6903;49.480;11.102;2023-06-10T12:50:52;97584.44;;;28.23;50.17
13661;BME280;6903;49.480;11.102;2023-06-10T12:53:18;97590.13;;;27.93;51.14
13661;BME280;6903;49.480;11.102;2023-06-10T12:55:45;97585.63;;;27.75;52.16
13661;BME280;6903;49.480;11.102;2023-06-10T12:58:11;97584.47;;;27.71;52.56
13661;BME280;6903;49.480;11.102;2023-06-10T13:00:37;97589.28;;;27.81;52.03
13661;BME280;6903;49.480;11.102;2023-06-10T13:03:02;97580.31;;;27.80;52.18